Tulare, SD (57476)

6:00 AM CST on January 20, 2017 (GMT -0600)
York- Section 31 | | Change Station
Active Advisory: Dense Fog Advisory

Elev 1510 ft 44.55 °N, 98.93 °W | Updated 10 minutes ago

Overcast
Overcast
33.8 °F
Feels Like 34 °F
N
2.2
Wind Variable Wind from South

Today
High -- | Low -- °F
--% Chance of Precip.
Yesterday
High -- | Low -- °F
Precip. -- in
Pressure 29.46 in
Visibility 10.0 miles
Clouds Overcast 1300 ft
Windchill 34 °F
Dew Point 34 °F
Humidity 99%
Rainfall 0.00 in
Snow Depth Not available.
8:04 AM 5:26 PM
Last Quarter, 45% visible
METAR KHON 201155Z AUTO 13007KT 10SM OVC013 02/02 A2943 RMK AO2 SLP975 T00220022 10028 20022 56019
Pressure 29.46 in
Visibility 10.0 miles
Clouds Overcast 1300 ft
Windchill 34 °F
Dew Point 34 °F
Humidity 99%
Rainfall 0.00 in
Snow Depth Not available.
8:04 AM 5:26 PM
Last Quarter, 45% visible
METAR KHON 201155Z AUTO 13007KT 10SM OVC013 02/02 A2943 RMK AO2 SLP975 T00220022 10028 20022 56019

Get Your Daily Forecast Email!

Thanks for signing up!

Be on the lookout for a verification email in your inbox.

You'll start receiving the daily forecast at 8 AM.

×

10-Day Weather Forecast

Almanac

Astronomy

Jan. 20, 2017 Rise Set
Actual Time
Civil Twilight
Nautical Twilight
Astronomical Twilight
Moon
Length of Visible Light
Length of Day
Tomorrow will be .
, % of the Moon is Illuminated

Today's Extremes

State Highs State Lows

Community

WunderPhotos

Upload Photos

1,962,540 photos uploaded!

WunderBlog® & News

Nearby

Air Quality

  Air Quality AQ Index Pollutant
Not available.

Snow Depth

Station Depth Elevation

Earthquake Activity

City Distance Mag. Time & Date
Minimum magnitude displayed is 2.5.

Coastal Water Temperatures

Place Temperature

Stations

Nearby Weather Stations

Station Location Temp. Windchill Dew Point Humidity Wind Precip. Elev Updated Type
                   

Watches & Warnings

Dense Fog Advisory
Issued: 2:32 AM MST Jan. 20, 2017 – National Weather Service

... Dense fog advisory remains in effect until noon CST /11 am
MST/ today...

* visibility... a quarter mile or less.

* Impacts... low visibility will result in difficult driving
conditions. In areas where the temperature is below freezing... the
fog may deposit on objects and surfaces including sidewalks and
roads... resulting in patchy slick spots. Travelers take caution.

Precautionary/preparedness actions...

A dense fog advisory means visibilities will frequently be
reduced to less than one quarter mile. If driving... slow down...
use your headlights... and leave plenty of distance ahead of you.